首页
METAR-TAF:

METAR-TAF

机场 :

罗阿坦岛, 洪都拉斯

纬度: 16-19N, 经度: 086-31W, 海拔: 5米

当前天气观测

该预报发布于14小时和38分钟前的20:00 UTC
风速10节,风向西
温度 29°C
湿度 79%
气压 1010 hPa
能见度10公里或以上
散云层高于2000英尺

METAR: MHRO 012000Z 27010KT 9999 SCT020 29/25 Q1010 A2983

时间: 04:38 (10:38 UTC)

预报

该预报发布于6小时和13分钟前的04:25 UTC
预报有效从02日的 06点(UTC)到 03日的 06点(UTC)
风速12节,风向东转东南
能见度10公里或以上
散云层高于2400英尺
成为
从 02日的 08点(UTC)到 02日的 10点(UTC)
风速5节,风向东转东南
少量云层高于2000英尺
成为
从 02日的 18点(UTC)到 02日的 20点(UTC)
风速18节,风向

TAF: MHRO 020425Z 0206/0306 12012KT 9999 SCT024 TX30/0221Z TN26/0212Z BECMG 0208/0210 12005KT FEW020 BECMG 0218/0220 08018KT

超过4000个机场的气象观测和天气预报(METAR&TAF报告)。

可查询的气象台以黄色和红色小点在地图上表示。

将鼠标移到小点上方,可查看气象台名称。

然后点击查看天气观测和预报。

如需切换地图:点击带黑十字的绿色按钮放大地图;点击带横线的绿色按钮缩小地图;或者点击绿色箭头查看邻近地区的地图。


METAR-TAF: